sensor_id;sensor_type;location;lat;lon;timestamp;pressure;altitude;pressure_sealevel;temperature;humidity
49044;BME280;34860;48.066;14.124;2024-01-30T00:01:22;98113.97;;;-1.26;71.68
49044;BME280;34860;48.066;14.124;2024-01-30T00:04:12;98121.47;;;-1.23;71.72
49044;BME280;34860;48.066;14.124;2024-01-30T00:07:01;98129.97;;;-1.16;71.44
49044;BME280;34860;48.066;14.124;2024-01-30T00:09:50;98121.16;;;-1.21;71.42
49044;BME280;34860;48.066;14.124;2024-01-30T00:12:41;98119.25;;;-1.30;71.58
49044;BME280;34860;48.066;14.124;2024-01-30T00:15:31;98128.25;;;-1.29;71.73
49044;BME280;34860;48.066;14.124;2024-01-30T00:18:20;98132.41;;;-1.32;71.72
49044;BME280;34860;48.066;14.124;2024-01-30T00:21:09;98128.09;;;-1.41;71.83
49044;BME280;34860;48.066;14.124;2024-01-30T00:23:58;98123.75;;;-1.42;71.66
49044;BME280;34860;48.066;14.124;2024-01-30T00:26:47;98121.16;;;-1.39;71.77
49044;BME280;34860;48.066;14.124;2024-01-30T00:29:38;98113.78;;;-1.21;71.24
49044;BME280;34860;48.066;14.124;2024-01-30T00:32:27;98116.47;;;-1.12;71.04
49044;BME280;34860;48.066;14.124;2024-01-30T00:35:16;98115.38;;;-1.11;71.00
49044;BME280;34860;48.066;14.124;2024-01-30T00:38:05;98116.47;;;-1.03;70.83
49044;BME280;34860;48.066;14.124;2024-01-30T00:40:55;98108.59;;;-0.96;70.69
49044;BME280;34860;48.066;14.124;2024-01-30T00:43:44;98119.50;;;-0.96;70.67
49044;BME280;34860;48.066;14.124;2024-01-30T00:46:35;98125.31;;;-1.06;70.87
49044;BME280;34860;48.066;14.124;2024-01-30T00:49:24;98124.38;;;-1.28;71.29
49044;BME280;34860;48.066;14.124;2024-01-30T00:52:13;98117.66;;;-1.39;71.38
49044;BME280;34860;48.066;14.124;2024-01-30T00:55:04;98115.88;;;-1.44;71.56
49044;BME280;34860;48.066;14.124;2024-01-30T00:57:53;98125.03;;;-1.49;71.59
49044;BME280;34860;48.066;14.124;2024-01-30T01:00:42;98117.00;;;-1.54;71.61
49044;BME280;34860;48.066;14.124;2024-01-30T01:03:33;98119.59;;;-1.57;71.72
49044;BME280;34860;48.066;14.124;2024-01-30T01:06:22;98107.56;;;-1.56;71.53
49044;BME280;34860;48.066;14.124;2024-01-30T01:09:12;98109.16;;;-1.64;71.74
49044;BME280;34860;48.066;14.124;2024-01-30T01:12:01;98109.50;;;-1.66;71.72
49044;BME280;34860;48.066;14.124;2024-01-30T01:14:50;98102.75;;;-1.68;71.69
49044;BME280;34860;48.066;14.124;2024-01-30T01:17:39;98106.59;;;-1.69;71.62
49044;BME280;34860;48.066;14.124;2024-01-30T01:20:30;98092.97;;;-1.69;71.95
49044;BME280;34860;48.066;14.124;2024-01-30T01:23:19;98097.28;;;-1.68;71.55
49044;BME280;34860;48.066;14.124;2024-01-30T01:26:08;98099.41;;;-1.74;71.68
49044;BME280;34860;48.066;14.124;2024-01-30T01:28:59;98108.69;;;-1.75;71.56
49044;BME280;34860;48.066;14.124;2024-01-30T01:31:48;98096.50;;;-1.77;71.59
49044;BME280;34860;48.066;14.124;2024-01-30T01:34:37;98099.53;;;-1.79;71.63
49044;BME280;34860;48.066;14.124;2024-01-30T01:37:29;98104.50;;;-1.81;71.50
49044;BME280;34860;48.066;14.124;2024-01-30T01:40:18;98106.91;;;-1.79;71.28
49044;BME280;34860;48.066;14.124;2024-01-30T01:43:07;98116.19;;;-1.80;71.35
49044;BME280;34860;48.066;14.124;2024-01-30T01:45:57;98098.75;;;-1.79;71.18
49044;BME280;34860;48.066;14.124;2024-01-30T01:48:46;98102.09;;;-1.83;71.14
49044;BME280;34860;48.066;14.124;2024-01-30T01:51:36;98099.22;;;-1.86;71.29
49044;BME280;34860;48.066;14.124;2024-01-30T01:54:28;98096.03;;;-1.88;71.31
49044;BME280;34860;48.066;14.124;2024-01-30T01:57:18;98088.16;;;-1.90;71.30
49044;BME280;34860;48.066;14.124;2024-01-30T02:00:08;98090.06;;;-1.90;71.31
49044;BME280;34860;48.066;14.124;2024-01-30T02:02:59;98093.94;;;-1.91;71.24
49044;BME280;34860;48.066;14.124;2024-01-30T02:05:50;98093.94;;;-1.91;71.20
49044;BME280;34860;48.066;14.124;2024-01-30T02:08:39;98100.97;;;-1.90;71.13
49044;BME280;34860;48.066;14.124;2024-01-30T02:11:31;98096.47;;;-1.95;71.39
49044;BME280;34860;48.066;14.124;2024-01-30T02:14:21;98092.63;;;-1.94;71.43
49044;BME280;34860;48.066;14.124;2024-01-30T02:17:10;98090.56;;;-1.97;71.28
49044;BME280;34860;48.066;14.124;2024-01-30T02:20:00;98089.75;;;-1.97;71.27
49044;BME280;34860;48.066;14.124;2024-01-30T02:22:51;98092.16;;;-1.96;71.21
49044;BME280;34860;48.066;14.124;2024-01-30T02:25:42;98095.69;;;-1.95;71.27
49044;BME280;34860;48.066;14.124;2024-01-30T02:28:33;98094.56;;;-1.94;71.32
49044;BME280;34860;48.066;14.124;2024-01-30T02:31:22;98099.84;;;-1.98;71.30
49044;BME280;34860;48.066;14.124;2024-01-30T02:34:11;98092.16;;;-1.96;71.13
49044;BME280;34860;48.066;14.124;2024-01-30T02:37:00;98100.66;;;-1.97;71.18
49044;BME280;34860;48.066;14.124;2024-01-30T02:39:51;98092.28;;;-2.01;71.29
49044;BME280;34860;48.066;14.124;2024-01-30T02:42:40;98092.78;;;-2.08;71.36
49044;BME280;34860;48.066;14.124;2024-01-30T02:45:30;98097.44;;;-2.08;71.31
49044;BME280;34860;48.066;14.124;2024-01-30T02:48:19;98095.03;;;-2.10;71.22
49044;BME280;34860;48.066;14.124;2024-01-30T02:51:09;98099.34;;;-2.17;71.15
49044;BME280;34860;48.066;14.124;2024-01-30T02:53:58;98101.09;;;-2.22;71.51
49044;BME280;34860;48.066;14.124;2024-01-30T02:56:48;98105.41;;;-2.21;71.27
49044;BME280;34860;48.066;14.124;2024-01-30T02:59:37;98103.94;;;-2.27;71.31
49044;BME280;34860;48.066;14.124;2024-01-30T03:02:27;98108.59;;;-2.27;71.38
49044;BME280;34860;48.066;14.124;2024-01-30T03:05:16;98105.88;;;-2.36;71.48
49044;BME280;34860;48.066;14.124;2024-01-30T03:08:06;98094.63;;;-2.43;71.49
49044;BME280;34860;48.066;14.124;2024-01-30T03:10:55;98093.16;;;-2.49;71.49
49044;BME280;34860;48.066;14.124;2024-01-30T03:13:46;98097.66;;;-2.53;71.39
49044;BME280;34860;48.066;14.124;2024-01-30T03:16:35;98094.56;;;-2.61;71.44
49044;BME280;34860;48.066;14.124;2024-01-30T03:19:25;98094.41;;;-2.64;71.55
49044;BME280;34860;48.066;14.124;2024-01-30T03:22:14;98093.09;;;-2.67;71.34
49044;BME280;34860;48.066;14.124;2024-01-30T03:25:04;98088.50;;;-2.66;71.77
49044;BME280;34860;48.066;14.124;2024-01-30T03:27:53;98095.13;;;-2.81;71.43
49044;BME280;34860;48.066;14.124;2024-01-30T03:30:44;98087.56;;;-2.93;71.82
49044;BME280;34860;48.066;14.124;2024-01-30T03:33:33;98096.50;;;-3.01;71.79
49044;BME280;34860;48.066;14.124;2024-01-30T03:36:23;98093.41;;;-3.08;71.83
49044;BME280;34860;48.066;14.124;2024-01-30T03:39:12;98090.66;;;-3.17;71.69
49044;BME280;34860;48.066;14.124;2024-01-30T03:42:01;98094.31;;;-3.22;71.80
49044;BME280;34860;48.066;14.124;2024-01-30T03:44:50;98099.88;;;-3.27;71.78
49044;BME280;34860;48.066;14.124;2024-01-30T03:47:44;98095.47;;;-3.37;71.81
49044;BME280;34860;48.066;14.124;2024-01-30T03:50:34;98104.59;;;-3.41;71.75
49044;BME280;34860;48.066;14.124;2024-01-30T03:53:23;98097.66;;;-3.48;71.88
49044;BME280;34860;48.066;14.124;2024-01-30T03:56:12;98104.03;;;-3.52;71.87
49044;BME280;34860;48.066;14.124;2024-01-30T03:59:01;98099.38;;;-3.52;71.89
49044;BME280;34860;48.066;14.124;2024-01-30T04:01:51;98101.00;;;-3.51;71.78
49044;BME280;34860;48.066;14.124;2024-01-30T04:04:42;98102.19;;;-3.43;71.53
49044;BME280;34860;48.066;14.124;2024-01-30T04:07:33;98103.94;;;-3.38;71.54
49044;BME280;34860;48.066;14.124;2024-01-30T04:10:23;98110.19;;;-3.38;71.50
49044;BME280;34860;48.066;14.124;2024-01-30T04:13:12;98103.00;;;-3.34;71.46
49044;BME280;34860;48.066;14.124;2024-01-30T04:16:02;98104.94;;;-3.34;71.43
49044;BME280;34860;48.066;14.124;2024-01-30T04:18:51;98107.91;;;-3.44;71.54
49044;BME280;34860;48.066;14.124;2024-01-30T04:21:42;98104.63;;;-3.55;71.56
49044;BME280;34860;48.066;14.124;2024-01-30T04:24:31;98110.19;;;-3.60;71.75
49044;BME280;34860;48.066;14.124;2024-01-30T04:27:20;98107.88;;;-3.67;71.87
49044;BME280;34860;48.066;14.124;2024-01-30T04:30:10;98105.69;;;-3.65;71.80
49044;BME280;34860;48.066;14.124;2024-01-30T04:32:59;98105.88;;;-3.61;71.67
49044;BME280;34860;48.066;14.124;2024-01-30T04:35:49;98108.75;;;-3.58;71.70
49044;BME280;34860;48.066;14.124;2024-01-30T04:38:41;98103.94;;;-3.61;71.53
49044;BME280;34860;48.066;14.124;2024-01-30T04:41:30;98103.75;;;-3.65;71.56
49044;BME280;34860;48.066;14.124;2024-01-30T04:44:20;98101.84;;;-3.64;71.64
49044;BME280;34860;48.066;14.124;2024-01-30T04:47:09;98111.19;;;-3.56;71.54
49044;BME280;34860;48.066;14.124;2024-01-30T04:50:06;98111.56;;;-3.49;71.35
49044;BME280;34860;48.066;14.124;2024-01-30T04:52:56;98111.13;;;-3.42;71.19
49044;BME280;34860;48.066;14.124;2024-01-30T04:55:47;98114.13;;;-3.21;71.20
49044;BME280;34860;48.066;14.124;2024-01-30T04:58:36;98110.41;;;-3.03;70.95
49044;BME280;34860;48.066;14.124;2024-01-30T05:01:26;98114.00;;;-2.85;70.41
49044;BME280;34860;48.066;14.124;2024-01-30T05:04:15;98115.03;;;-2.72;70.08
49044;BME280;34860;48.066;14.124;2024-01-30T05:07:04;98117.78;;;-2.63;69.85
49044;BME280;34860;48.066;14.124;2024-01-30T05:09:54;98118.75;;;-2.59;69.73
49044;BME280;34860;48.066;14.124;2024-01-30T05:12:46;98117.81;;;-2.54;69.67
49044;BME280;34860;48.066;14.124;2024-01-30T05:15:35;98117.66;;;-2.49;69.56
49044;BME280;34860;48.066;14.124;2024-01-30T05:18:24;98117.19;;;-2.51;69.69
49044;BME280;34860;48.066;14.124;2024-01-30T05:21:13;98123.88;;;-2.58;69.47
49044;BME280;34860;48.066;14.124;2024-01-30T05:24:02;98127.88;;;-2.64;69.65
49044;BME280;34860;48.066;14.124;2024-01-30T05:26:51;98124.81;;;-2.71;69.92
49044;BME280;34860;48.066;14.124;2024-01-30T05:29:42;98129.56;;;-2.77;69.76
49044;BME280;34860;48.066;14.124;2024-01-30T05:32:31;98138.53;;;-2.76;69.81
49044;BME280;34860;48.066;14.124;2024-01-30T05:35:20;98129.09;;;-2.79;69.83
49044;BME280;34860;48.066;14.124;2024-01-30T05:38:10;98130.56;;;-3.04;70.60
49044;BME280;34860;48.066;14.124;2024-01-30T05:41:00;98138.44;;;-3.25;71.32
49044;BME280;34860;48.066;14.124;2024-01-30T05:43:49;98135.44;;;-3.37;71.94
49044;BME280;34860;48.066;14.124;2024-01-30T05:46:40;98130.50;;;-3.35;71.97
49044;BME280;34860;48.066;14.124;2024-01-30T05:49:29;98127.59;;;-3.39;72.10
49044;BME280;34860;48.066;14.124;2024-01-30T05:52:18;98132.88;;;-3.42;72.35
49044;BME280;34860;48.066;14.124;2024-01-30T05:55:07;98134.09;;;-3.49;72.33
49044;BME280;34860;48.066;14.124;2024-01-30T05:57:58;98140.44;;;-3.53;72.54
49044;BME280;34860;48.066;14.124;2024-01-30T06:00:47;98139.56;;;-3.62;72.61
49044;BME280;34860;48.066;14.124;2024-01-30T06:03:38;98132.09;;;-3.79;72.77
49044;BME280;34860;48.066;14.124;2024-01-30T06:06:28;98141.59;;;-3.91;72.91
49044;BME280;34860;48.066;14.124;2024-01-30T06:09:17;98146.72;;;-4.03;73.14
49044;BME280;34860;48.066;14.124;2024-01-30T06:12:06;98141.41;;;-4.08;72.94
49044;BME280;34860;48.066;14.124;2024-01-30T06:14:55;98149.66;;;-4.13;73.01
49044;BME280;34860;48.066;14.124;2024-01-30T06:17:45;98144.03;;;-4.17;72.84
49044;BME280;34860;48.066;14.124;2024-01-30T06:20:36;98154.19;;;-4.23;72.80
49044;BME280;34860;48.066;14.124;2024-01-30T06:23:25;98156.91;;;-4.23;72.81
49044;BME280;34860;48.066;14.124;2024-01-30T06:26:15;98158.81;;;-4.23;72.62
49044;BME280;34860;48.066;14.124;2024-01-30T06:29:05;98149.47;;;-4.31;72.57
49044;BME280;34860;48.066;14.124;2024-01-30T06:31:55;98155.19;;;-4.32;72.59
49044;BME280;34860;48.066;14.124;2024-01-30T06:34:44;98155.53;;;-4.34;72.63
49044;BME280;34860;48.066;14.124;2024-01-30T06:37:35;98162.94;;;-4.40;72.51
49044;BME280;34860;48.066;14.124;2024-01-30T06:40:24;98161.31;;;-4.41;72.60
49044;BME280;34860;48.066;14.124;2024-01-30T06:43:14;98154.63;;;-4.43;72.40
49044;BME280;34860;48.066;14.124;2024-01-30T06:46:03;98166.06;;;-4.46;72.74
49044;BME280;34860;48.066;14.124;2024-01-30T06:48:52;98160.44;;;-4.50;72.40
49044;BME280;34860;48.066;14.124;2024-01-30T06:51:42;98163.34;;;-4.46;72.44
49044;BME280;34860;48.066;14.124;2024-01-30T06:54:32;98166.06;;;-4.46;72.21
49044;BME280;34860;48.066;14.124;2024-01-30T06:57:22;98161.13;;;-4.58;72.49
49044;BME280;34860;48.066;14.124;2024-01-30T07:00:12;98161.41;;;-4.60;72.61
49044;BME280;34860;48.066;14.124;2024-01-30T07:03:02;98171.19;;;-4.59;72.83
49044;BME280;34860;48.066;14.124;2024-01-30T07:05:52;98171.66;;;-4.57;72.86
49044;BME280;34860;48.066;14.124;2024-01-30T07:08:41;98165.16;;;-4.56;72.78
49044;BME280;34860;48.066;14.124;2024-01-30T07:11:32;98166.34;;;-4.62;72.73
49044;BME280;34860;48.066;14.124;2024-01-30T07:14:21;98168.06;;;-4.66;72.84
49044;BME280;34860;48.066;14.124;2024-01-30T07:17:10;98180.31;;;-4.68;72.94
49044;BME280;34860;48.066;14.124;2024-01-30T07:19:59;98176.22;;;-4.66;72.84
49044;BME280;34860;48.066;14.124;2024-01-30T07:22:48;98167.53;;;-4.68;72.92
49044;BME280;34860;48.066;14.124;2024-01-30T07:25:38;98182.31;;;-4.60;72.80
49044;BME280;34860;48.066;14.124;2024-01-30T07:28:30;98171.97;;;-4.58;72.88
49044;BME280;34860;48.066;14.124;2024-01-30T07:31:19;98179.63;;;-4.60;72.84
49044;BME280;34860;48.066;14.124;2024-01-30T07:34:11;98181.53;;;-4.61;72.86
49044;BME280;34860;48.066;14.124;2024-01-30T07:37:00;98174.09;;;-4.55;72.84
49044;BME280;34860;48.066;14.124;2024-01-30T07:39:49;98184.03;;;-4.50;72.72
49044;BME280;34860;48.066;14.124;2024-01-30T07:42:39;98189.66;;;-4.47;72.64
49044;BME280;34860;48.066;14.124;2024-01-30T07:45:30;98194.19;;;-4.42;72.59
49044;BME280;34860;48.066;14.124;2024-01-30T07:48:20;98201.25;;;-4.27;72.34
49044;BME280;34860;48.066;14.124;2024-01-30T07:51:09;98200.72;;;-4.15;72.21
49044;BME280;34860;48.066;14.124;2024-01-30T07:53:59;98200.25;;;-4.04;72.01
49044;BME280;34860;48.066;14.124;2024-01-30T07:56:51;98202.13;;;-3.90;71.79
49044;BME280;34860;48.066;14.124;2024-01-30T07:59:41;98204.00;;;-3.77;71.77
49044;BME280;34860;48.066;14.124;2024-01-30T08:02:33;98209.84;;;-3.70;71.61
49044;BME280;34860;48.066;14.124;2024-01-30T08:05:22;98209.13;;;-3.61;71.45
49044;BME280;34860;48.066;14.124;2024-01-30T08:08:11;98211.59;;;-3.51;71.49
49044;BME280;34860;48.066;14.124;2024-01-30T08:11:01;98207.47;;;-3.49;71.54
49044;BME280;34860;48.066;14.124;2024-01-30T08:13:50;98216.31;;;-3.43;71.64
49044;BME280;34860;48.066;14.124;2024-01-30T08:16:39;98221.69;;;-3.29;71.49
49044;BME280;34860;48.066;14.124;2024-01-30T08:19:30;98210.78;;;-3.15;71.33
49044;BME280;34860;48.066;14.124;2024-01-30T08:22:19;98215.34;;;-3.02;71.14
49044;BME280;34860;48.066;14.124;2024-01-30T08:25:08;98213.91;;;-2.77;70.79
49044;BME280;34860;48.066;14.124;2024-01-30T08:27:59;98220.25;;;-2.59;70.62
49044;BME280;34860;48.066;14.124;2024-01-30T08:30:48;98224.81;;;-2.45;70.41
49044;BME280;34860;48.066;14.124;2024-01-30T08:33:38;98213.88;;;-2.23;70.32
49044;BME280;34860;48.066;14.124;2024-01-30T08:36:30;98225.78;;;-2.01;69.82
49044;BME280;34860;48.066;14.124;2024-01-30T08:39:19;98232.38;;;-1.93;69.91
49044;BME280;34860;48.066;14.124;2024-01-30T08:42:08;98224.88;;;-1.79;69.72
49044;BME280;34860;48.066;14.124;2024-01-30T08:44:57;98227.19;;;-1.55;69.44
49044;BME280;34860;48.066;14.124;2024-01-30T08:47:47;98225.28;;;-1.37;68.99
49044;BME280;34860;48.066;14.124;2024-01-30T08:50:36;98230.59;;;-1.32;68.63
49044;BME280;34860;48.066;14.124;2024-01-30T08:53:27;98230.91;;;-1.24;68.50
49044;BME280;34860;48.066;14.124;2024-01-30T08:56:16;98234.44;;;-1.15;68.46
49044;BME280;34860;48.066;14.124;2024-01-30T08:59:05;98234.09;;;-1.14;68.38
49044;BME280;34860;48.066;14.124;2024-01-30T09:01:56;98232.03;;;-1.08;68.53
49044;BME280;34860;48.066;14.124;2024-01-30T09:04:49;98236.53;;;-1.03;68.55
49044;BME280;34860;48.066;14.124;2024-01-30T09:07:39;98229.47;;;-0.96;68.35
49044;BME280;34860;48.066;14.124;2024-01-30T09:10:29;98241.34;;;-0.92;68.28
49044;BME280;34860;48.066;14.124;2024-01-30T09:13:19;98238.09;;;-0.85;68.08
49044;BME280;34860;48.066;14.124;2024-01-30T09:16:08;98238.28;;;-0.81;68.20
49044;BME280;34860;48.066;14.124;2024-01-30T09:18:57;98231.03;;;-0.77;68.29
49044;BME280;34860;48.066;14.124;2024-01-30T09:21:47;98235.72;;;-0.95;68.56
49044;BME280;34860;48.066;14.124;2024-01-30T09:24:36;98237.66;;;-1.13;69.13
49044;BME280;34860;48.066;14.124;2024-01-30T09:27:27;98241.50;;;-1.14;69.30
49044;BME280;34860;48.066;14.124;2024-01-30T09:30:16;98242.78;;;-1.03;69.50
49044;BME280;34860;48.066;14.124;2024-01-30T09:33:06;98243.09;;;-1.04;69.05
49044;BME280;34860;48.066;14.124;2024-01-30T09:35:55;98241.03;;;-0.99;69.05
49044;BME280;34860;48.066;14.124;2024-01-30T09:38:44;98246.16;;;-1.06;68.87
49044;BME280;34860;48.066;14.124;2024-01-30T09:41:36;98246.63;;;-1.04;68.97
49044;BME280;34860;48.066;14.124;2024-01-30T09:44:30;98236.84;;;-0.96;69.15
49044;BME280;34860;48.066;14.124;2024-01-30T09:47:19;98234.72;;;-0.82;68.83
49044;BME280;34860;48.066;14.124;2024-01-30T09:50:09;98237.94;;;-0.71;68.54
49044;BME280;34860;48.066;14.124;2024-01-30T09:52:59;98236.78;;;-0.61;68.34
49044;BME280;34860;48.066;14.124;2024-01-30T09:55:51;98242.72;;;-0.59;68.27
49044;BME280;34860;48.066;14.124;2024-01-30T09:58:41;98231.66;;;-0.54;68.28
49044;BME280;34860;48.066;14.124;2024-01-30T10:01:34;98234.53;;;-0.50;68.17
49044;BME280;34860;48.066;14.124;2024-01-30T10:04:24;98234.81;;;-0.43;68.51
49044;BME280;34860;48.066;14.124;2024-01-30T10:07:14;98229.03;;;-0.42;68.10
49044;BME280;34860;48.066;14.124;2024-01-30T10:10:05;98237.25;;;-0.50;68.81
49044;BME280;34860;48.066;14.124;2024-01-30T10:12:54;98243.34;;;-0.45;68.98
49044;BME280;34860;48.066;14.124;2024-01-30T10:15:44;98235.78;;;-0.39;68.92
49044;BME280;34860;48.066;14.124;2024-01-30T10:18:35;98232.72;;;-0.46;69.40
49044;BME280;34860;48.066;14.124;2024-01-30T10:21:25;98234.53;;;-0.59;69.58
49044;BME280;34860;48.066;14.124;2024-01-30T10:24:14;98229.91;;;-0.59;69.86
49044;BME280;34860;48.066;14.124;2024-01-30T10:27:05;98233.19;;;-0.35;69.56
49044;BME280;34860;48.066;14.124;2024-01-30T10:29:55;98215.47;;;-0.21;69.01
49044;BME280;34860;48.066;14.124;2024-01-30T10:32:46;98224.59;;;-0.16;68.84
49044;BME280;34860;48.066;14.124;2024-01-30T10:35:37;98218.63;;;-0.10;68.92
49044;BME280;34860;48.066;14.124;2024-01-30T10:38:29;98208.19;;;-0.08;68.58
49044;BME280;34860;48.066;14.124;2024-01-30T10:41:19;98208.78;;;-0.02;68.64
49044;BME280;34860;48.066;14.124;2024-01-30T10:44:11;98220.06;;;-0.04;68.67
49044;BME280;34860;48.066;14.124;2024-01-30T10:47:07;98211.13;;;-0.22;69.21
49044;BME280;34860;48.066;14.124;2024-01-30T10:50:00;98212.56;;;-0.15;69.24
49044;BME280;34860;48.066;14.124;2024-01-30T10:52:53;98205.78;;;-0.09;68.90
49044;BME280;34860;48.066;14.124;2024-01-30T10:55:51;98204.16;;;-0.02;68.46
49044;BME280;34860;48.066;14.124;2024-01-30T10:58:41;98199.16;;;0.01;68.57
49044;BME280;34860;48.066;14.124;2024-01-30T11:01:32;98192.19;;;0.03;68.45
49044;BME280;34860;48.066;14.124;2024-01-30T11:04:21;98181.44;;;0.07;68.30
49044;BME280;34860;48.066;14.124;2024-01-30T11:07:16;98184.75;;;0.12;68.23
49044;BME280;34860;48.066;14.124;2024-01-30T11:10:09;98178.44;;;0.21;68.18
49044;BME280;34860;48.066;14.124;2024-01-30T11:13:10;98183.25;;;0.24;68.05
49044;BME280;34860;48.066;14.124;2024-01-30T11:16:03;98177.78;;;0.24;68.00
49044;BME280;34860;48.066;14.124;2024-01-30T11:19:11;98176.03;;;0.19;67.98
49044;BME280;34860;48.066;14.124;2024-01-30T11:22:01;98174.97;;;0.11;68.11
49044;BME280;34860;48.066;14.124;2024-01-30T11:24:50;98173.69;;;0.09;68.56
49044;BME280;34860;48.066;14.124;2024-01-30T11:27:43;98175.63;;;0.08;68.57
49044;BME280;34860;48.066;14.124;2024-01-30T11:30:32;98173.56;;;0.05;68.50
49044;BME280;34860;48.066;14.124;2024-01-30T11:33:28;98174.69;;;0.04;68.49
49044;BME280;34860;48.066;14.124;2024-01-30T11:36:21;98165.75;;;0.16;68.40
49044;BME280;34860;48.066;14.124;2024-01-30T11:39:15;98169.56;;;0.24;68.26
49044;BME280;34860;48.066;14.124;2024-01-30T11:42:07;98169.66;;;0.36;68.33
49044;BME280;34860;48.066;14.124;2024-01-30T11:45:01;98162.31;;;0.49;67.93
49044;BME280;34860;48.066;14.124;2024-01-30T11:47:51;98161.78;;;0.56;68.11
49044;BME280;34860;48.066;14.124;2024-01-30T11:50:41;98156.66;;;0.54;67.99
49044;BME280;34860;48.066;14.124;2024-01-30T11:56:55;98156.47;;;0.59;68.05
49044;BME280;34860;48.066;14.124;2024-01-30T11:59:44;98154.44;;;0.68;68.22
49044;BME280;34860;48.066;14.124;2024-01-30T12:02:34;98149.47;;;0.70;68.16
49044;BME280;34860;48.066;14.124;2024-01-30T12:05:23;98149.91;;;0.72;68.32
49044;BME280;34860;48.066;14.124;2024-01-30T12:08:15;98139.91;;;0.77;68.37
49044;BME280;34860;48.066;14.124;2024-01-30T12:11:06;98150.16;;;0.80;68.40
49044;BME280;34860;48.066;14.124;2024-01-30T12:13:54;98141.94;;;0.80;68.41
49044;BME280;34860;48.066;14.124;2024-01-30T12:16:43;98137.28;;;0.80;68.66
49044;BME280;34860;48.066;14.124;2024-01-30T12:19:33;98137.03;;;0.73;69.17
49044;BME280;34860;48.066;14.124;2024-01-30T12:22:21;98140.44;;;0.49;69.44
49044;BME280;34860;48.066;14.124;2024-01-30T12:25:11;98135.06;;;0.40;70.00
49044;BME280;34860;48.066;14.124;2024-01-30T12:28:00;98132.78;;;0.42;70.43
49044;BME280;34860;48.066;14.124;2024-01-30T12:30:49;98139.44;;;0.53;69.92
49044;BME280;34860;48.066;14.124;2024-01-30T12:33:37;98132.97;;;0.58;69.49
49044;BME280;34860;48.066;14.124;2024-01-30T12:36:28;98133.72;;;0.67;69.23
49044;BME280;34860;48.066;14.124;2024-01-30T12:39:17;98129.63;;;0.74;69.05
49044;BME280;34860;48.066;14.124;2024-01-30T12:42:05;98130.31;;;0.83;68.92
49044;BME280;34860;48.066;14.124;2024-01-30T12:44:54;98117.91;;;0.85;68.85
49044;BME280;34860;48.066;14.124;2024-01-30T12:47:42;98125.78;;;0.87;68.85
49044;BME280;34860;48.066;14.124;2024-01-30T12:50:31;98123.13;;;0.78;68.76
49044;BME280;34860;48.066;14.124;2024-01-30T12:53:21;98119.22;;;0.67;68.73
49044;BME280;34860;48.066;14.124;2024-01-30T12:56:10;98120.41;;;0.57;68.86
49044;BME280;34860;48.066;14.124;2024-01-30T12:58:58;98114.09;;;0.44;68.96
49044;BME280;34860;48.066;14.124;2024-01-30T13:01:47;98124.13;;;0.40;69.43
49044;BME280;34860;48.066;14.124;2024-01-30T13:04:35;98121.75;;;0.51;69.50
49044;BME280;34860;48.066;14.124;2024-01-30T13:07:24;98118.84;;;0.56;69.28
49044;BME280;34860;48.066;14.124;2024-01-30T13:10:14;98113.03;;;0.58;69.25
49044;BME280;34860;48.066;14.124;2024-01-30T13:13:03;98107.84;;;0.44;69.76
49044;BME280;34860;48.066;14.124;2024-01-30T13:15:52;98113.38;;;0.56;69.73
49044;BME280;34860;48.066;14.124;2024-01-30T13:18:40;98114.88;;;0.66;69.43
49044;BME280;34860;48.066;14.124;2024-01-30T13:21:29;98108.34;;;0.58;69.33
49044;BME280;34860;48.066;14.124;2024-01-30T13:24:17;98108.69;;;0.57;69.48
49044;BME280;34860;48.066;14.124;2024-01-30T13:27:09;98112.88;;;0.54;69.39
49044;BME280;34860;48.066;14.124;2024-01-30T13:29:58;98104.09;;;0.48;69.38
49044;BME280;34860;48.066;14.124;2024-01-30T13:32:47;98106.38;;;0.46;69.41
49044;BME280;34860;48.066;14.124;2024-01-30T13:35:35;98106.16;;;0.51;69.32
49044;BME280;34860;48.066;14.124;2024-01-30T13:38:24;98111.44;;;0.57;69.42
49044;BME280;34860;48.066;14.124;2024-01-30T13:41:12;98111.88;;;0.59;69.30
49044;BME280;34860;48.066;14.124;2024-01-30T13:44:03;98107.75;;;0.52;69.35
49044;BME280;34860;48.066;14.124;2024-01-30T13:46:51;98105.69;;;0.49;69.43
49044;BME280;34860;48.066;14.124;2024-01-30T13:49:40;98103.88;;;0.53;69.54
49044;BME280;34860;48.066;14.124;2024-01-30T13:52:29;98104.50;;;0.59;69.55
49044;BME280;34860;48.066;14.124;2024-01-30T13:55:18;98102.66;;;0.63;69.43
49044;BME280;34860;48.066;14.124;2024-01-30T13:58:06;98102.44;;;0.56;69.59
49044;BME280;34860;48.066;14.124;2024-01-30T14:00:56;98102.41;;;0.35;69.99
49044;BME280;34860;48.066;14.124;2024-01-30T14:03:45;98103.69;;;0.16;70.80
49044;BME280;34860;48.066;14.124;2024-01-30T14:06:34;98107.03;;;0.22;71.01
49044;BME280;34860;48.066;14.124;2024-01-30T14:09:22;98104.38;;;0.34;70.79
49044;BME280;34860;48.066;14.124;2024-01-30T14:12:11;98102.91;;;0.37;70.61
49044;BME280;34860;48.066;14.124;2024-01-30T14:14:59;98100.63;;;0.39;70.56
49044;BME280;34860;48.066;14.124;2024-01-30T14:17:50;98102.56;;;0.39;70.61
49044;BME280;34860;48.066;14.124;2024-01-30T14:20:38;98099.34;;;0.36;70.77
49044;BME280;34860;48.066;14.124;2024-01-30T14:23:27;98099.03;;;0.38;70.33
49044;BME280;34860;48.066;14.124;2024-01-30T14:26:16;98103.91;;;0.32;70.30
49044;BME280;34860;48.066;14.124;2024-01-30T14:29:05;98100.34;;;0.32;70.22
49044;BME280;34860;48.066;14.124;2024-01-30T14:31:54;98109.84;;;0.34;70.09
49044;BME280;34860;48.066;14.124;2024-01-30T14:34:48;98101.41;;;0.40;70.01
49044;BME280;34860;48.066;14.124;2024-01-30T14:37:37;98105.88;;;0.44;70.14
49044;BME280;34860;48.066;14.124;2024-01-30T14:40:26;98101.81;;;0.50;69.72
49044;BME280;34860;48.066;14.124;2024-01-30T14:43:14;98111.84;;;0.46;69.67
49044;BME280;34860;48.066;14.124;2024-01-30T14:46:03;98105.22;;;0.47;69.77
49044;BME280;34860;48.066;14.124;2024-01-30T14:48:53;98111.16;;;0.49;69.84
49044;BME280;34860;48.066;14.124;2024-01-30T14:51:46;98101.69;;;0.47;70.04
49044;BME280;34860;48.066;14.124;2024-01-30T14:54:34;98105.44;;;0.42;69.87